MDT,Max TemperatureF,Mean TemperatureF,Min TemperatureF,Max Dew PointF,MeanDew PointF,Min DewpointF,Max Humidity, Mean Humidity, Min Humidity, Max Sea Level PressureIn, Mean Sea Level PressureIn, Min Sea Level PressureIn, Max VisibilityMiles, Mean VisibilityMiles, Min VisibilityMiles, Max Wind SpeedMPH, Mean Wind SpeedMPH, Max Gust SpeedMPH,PrecipitationIn, CloudCover, Events, WindDirDegrees
2012-10-1,67,51,34,47,40,29,86,58,29,30.33,30.19,30.06,10,10,9,21,11,28,0.01,3,Rain,352
2012-10-2,87,62,37,40,32,20,85,47,9,30.07,29.85,29.71,10,10,10,15,8,18,0.00,0,,233
2012-10-3,88,62,35,35,28,21,64,37,9,30.22,29.87,29.68,10,10,7,39,22,47,0.00,1,,312
2012-10-4,50,39,28,27,24,20,78,55,32,30.40,30.34,30.23,10,10,10,22,11,26,0.00,0,,28
2012-10-5,35,34,32,32,29,23,92,78,64,30.42,30.33,30.26,10,6,1,16,8,20,0.04,8,Rain-Snow,128
2012-10-6,34,28,21,31,28,19,92,84,75,30.44,30.35,30.27,10,4,0,17,8,20,0.28,7,Fog-Snow,95
2012-10-7,53,35,16,30,24,16,92,64,35,30.36,30.21,30.06,10,10,10,15,9,23,0.00,0,,269
2012-10-8,71,51,30,30,24,18,78,46,14,30.04,29.90,29.78,10,10,10,22,11,28,0.00,0,,314
2012-10-9,46,37,27,38,33,25,92,77,62,30.28,30.10,29.81,10,9,2,18,10,22,T,6,Rain,351
2012-10-10,65,46,27,38,33,25,92,62,31,30.27,30.09,29.93,10,10,7,20,11,23,0.00,0,,224
2012-10-11,52,42,32,39,33,27,86,66,46,30.32,30.13,29.89,10,10,10,23,12,28,0.00,0,,47
2012-10-12,64,47,29,40,32,24,78,59,39,30.29,30.06,29.78,10,10,10,26,13,33,0.00,0,,165
2012-10-13,60,51,42,50,42,37,89,70,51,30.01,29.81,29.74,10,10,2,28,15,32,0.13,4,Rain-Thunderstorm,303
2012-10-14,70,55,40,40,36,33,79,53,26,30.16,30.10,30.04,10,10,10,26,12,35,0.00,1,,297
2012-10-15,81,59,36,41,32,26,79,47,14,30.04,29.89,29.73,10,10,10,23,11,31,0.00,0,,272
2012-10-16,79,60,40,44,35,29,73,46,19,29.81,29.60,29.44,10,10,7,41,15,55,T,2,Rain,276
2012-10-17,56,43,29,39,23,15,71,46,20,29.96,29.79,29.58,10,10,10,39,20,49,0.01,3,Rain,317
2012-10-18,54,45,35,21,12,6,52,34,15,30.07,30.02,29.96,10,9,2,53,31,67,0.00,1,,320
2012-10-19,74,53,31,28,23,13,58,38,17,30.05,29.89,29.71,10,10,7,21,10,28,0.00,0,,299
2012-10-20,81,60,38,27,23,18,54,32,9,29.77,29.66,29.57,10,10,7,24,11,30,0.00,0,,248
2012-10-21,65,50,35,40,34,24,76,57,37,29.90,29.77,29.58,10,10,7,22,12,26,0.00,0,,20
2012-10-22,62,50,37,45,40,34,93,68,43,29.97,29.89,29.70,10,5,0,20,9,23,0.00,5,Fog,75
2012-10-23,81,60,38,48,38,21,100,56,11,29.79,29.69,29.57,10,6,0,24,10,31,0.00,1,Fog,196
2012-10-24,50,40,29,38,33,28,100,78,56,30.05,29.90,29.79,10,6,0,30,14,37,0.13,7,Fog-Rain-Snow,16
2012-10-25,34,27,19,27,24,16,92,81,69,30.44,30.25,30.05,10,8,2,25,8,29,0.01,4,Snow,324
2012-10-26,35,30,24,27,24,21,92,81,69,30.58,30.44,30.32,10,8,4,15,8,17,T,5,Snow,277
2012-10-27,48,35,22,31,26,21,100,73,45,30.29,30.19,30.12,10,10,8,17,8,25,0.00,3,,235
2012-10-28,60,47,33,38,31,26,82,58,33,30.16,30.06,29.96,10,10,10,20,11,23,0.00,4,,237
2012-10-29,72,53,33,40,36,31,82,55,28,30.10,30.02,29.95,10,10,10,23,10,29,0.00,0,,281
2012-10-30,72,56,39,36,34,29,76,48,20,30.10,30.02,29.95,10,10,9,16,10,21,0.00,0,,299
2012-10-31,72,53,34,33,31,27,82,51,19,30.12,30.06,30.01,10,10,10,18,10,23,0.00,0,,310